DRK407 VNKT-VQPR
Flight info
| Callsign | DRK407 |
|---|---|
| Flight time | 0h 55m |
| Altitude | 35000 |
| Route | IGRIS1C KIMTI G348 SUBSU |
| Aircraft | A319/M-SDE3FGHIRWY/LB1 |
Departure
| Time | 2025-12-31 05:44 |
|---|---|
| Airport | Tribhuvan International Airport (VNKT) |
Arrival
| Time | 2025-12-31 06:39 |
|---|---|
| Airport | Paro International Airport (VQPR) |
| Time | Latitude | Longitude | Altitude | Speed | Heading |
|---|---|---|---|---|---|
| 2025-12-31 05:36 | 27.69183 | 85.35578 | 4390 ft | 0 kts | 202° |
| 2025-12-31 05:38 | 27.69105 | 85.35552 | 4389 ft | 0 kts | 167° |
| 2025-12-31 05:41 | 27.69062 | 85.35619 | 4391 ft | 14 kts | 126° |
| 2025-12-31 05:41 | 27.68977 | 85.35595 | 4391 ft | 15 kts | 208° |
| 2025-12-31 05:41 | 27.68692 | 85.35468 | 4391 ft | 26 kts | 203° |
| 2025-12-31 05:42 | 27.68455 | 85.35365 | 4396 ft | 9 kts | 23° |
| 2025-12-31 05:42 | 27.68611 | 85.35436 | 4393 ft | 57 kts | 22° |
| 2025-12-31 05:43 | 27.71181 | 85.36617 | 5270 ft | 158 kts | 22° |
| 2025-12-31 05:44 | 27.73204 | 85.37994 | 5988 ft | 193 kts | 50° |
| 2025-12-31 05:44 | 27.74054 | 85.41196 | 6749 ft | 241 kts | 91° |
| 2025-12-31 05:45 | 27.73414 | 85.44930 | 8391 ft | 249 kts | 123° |
| 2025-12-31 05:45 | 27.72239 | 85.46322 | 9301 ft | 251 kts | 146° |
| 2025-12-31 05:45 | 27.68834 | 85.47073 | 10858 ft | 265 kts | 191° |
| 2025-12-31 05:46 | 27.64407 | 85.43423 | 13202 ft | 274 kts | 246° |
| 2025-12-31 05:47 | 27.63734 | 85.39292 | 14930 ft | 269 kts | 272° |
| 2025-12-31 05:47 | 27.63754 | 85.35032 | 16486 ft | 275 kts | 272° |
| 2025-12-31 05:48 | 27.64866 | 85.30920 | 17963 ft | 283 kts | 303° |
| 2025-12-31 05:48 | 27.68122 | 85.28187 | 18701 ft | 325 kts | 344° |
| 2025-12-31 05:48 | 27.70470 | 85.28204 | 18831 ft | 356 kts | 12° |
| 2025-12-31 05:49 | 27.74273 | 85.31889 | 19694 ft | 390 kts | 64° |
| 2025-12-31 05:49 | 27.74344 | 85.37996 | 20754 ft | 408 kts | 114° |
| 2025-12-31 05:50 | 27.68933 | 85.45527 | 22373 ft | 420 kts | 136° |
| 2025-12-31 05:51 | 27.65053 | 85.50655 | 23290 ft | 439 kts | 128° |
| 2025-12-31 05:51 | 27.62191 | 85.56817 | 24195 ft | 453 kts | 106° |
| 2025-12-31 05:52 | 27.60637 | 85.63814 | 24996 ft | 466 kts | 105° |
| 2025-12-31 05:52 | 27.56906 | 85.74056 | 26063 ft | 482 kts | 121° |
| 2025-12-31 05:55 | 27.50383 | 86.08468 | 28998 ft | 532 kts | 90° |
| 2025-12-31 05:56 | 27.47006 | 86.40644 | 31364 ft | 566 kts | 102° |
| 2025-12-31 05:59 | 27.34149 | 87.06828 | 35113 ft | 564 kts | 102° |
| 2025-12-31 06:00 | 27.23541 | 87.34194 | 35119 ft | 549 kts | 126° |
| 2025-12-31 06:03 | 27.05401 | 87.67040 | 35093 ft | 547 kts | 126° |
| 2025-12-31 06:04 | 26.91309 | 87.92314 | 35108 ft | 546 kts | 126° |
| 2025-12-31 06:06 | 26.75146 | 88.21175 | 34403 ft | 549 kts | 123° |
| 2025-12-31 06:08 | 26.79002 | 88.51180 | 30184 ft | 482 kts | 47° |
| 2025-12-31 06:10 | 26.92353 | 88.75669 | 26572 ft | 441 kts | 50° |
| 2025-12-31 06:11 | 26.98477 | 88.86939 | 24739 ft | 405 kts | 52° |
| 2025-12-31 06:12 | 27.01243 | 88.92350 | 23818 ft | 395 kts | 56° |
| 2025-12-31 06:12 | 27.03857 | 88.97670 | 22842 ft | 384 kts | 56° |
| 2025-12-31 06:13 | 27.06387 | 89.02800 | 22180 ft | 365 kts | 56° |
| 2025-12-31 06:13 | 27.07614 | 89.05270 | 21922 ft | 360 kts | 56° |
| 2025-12-31 06:14 | 27.12282 | 89.14650 | 21187 ft | 327 kts | 56° |
| 2025-12-31 06:15 | 27.14447 | 89.18990 | 20874 ft | 312 kts | 56° |
| 2025-12-31 06:15 | 27.15524 | 89.21144 | 20370 ft | 319 kts | 57° |
| 2025-12-31 06:15 | 27.18084 | 89.25186 | 19476 ft | 318 kts | 41° |
| 2025-12-31 06:16 | 27.21025 | 89.27648 | 18739 ft | 318 kts | 25° |
| 2025-12-31 06:17 | 27.27397 | 89.29649 | 17363 ft | 320 kts | 8° |
| 2025-12-31 06:17 | 27.29593 | 89.30080 | 16924 ft | 322 kts | 8° |
| 2025-12-31 06:17 | 27.34048 | 89.30594 | 16029 ft | 323 kts | 350° |
| 2025-12-31 06:18 | 27.39934 | 89.27107 | 14533 ft | 317 kts | 325° |
| 2025-12-31 06:19 | 27.43943 | 89.25795 | 13925 ft | 292 kts | 8° |
| 2025-12-31 06:19 | 27.47112 | 89.27743 | 13766 ft | 238 kts | 51° |
| 2025-12-31 06:20 | 27.48253 | 89.30733 | 13485 ft | 185 kts | 85° |
| 2025-12-31 06:20 | 27.47963 | 89.33313 | 12990 ft | 158 kts | 111° |
| 2025-12-31 06:21 | 27.46795 | 89.35338 | 12390 ft | 154 kts | 136° |
| 2025-12-31 06:21 | 27.45953 | 89.36114 | 11912 ft | 162 kts | 147° |
| 2025-12-31 06:21 | 27.44277 | 89.37988 | 9857 ft | 204 kts | 104° |
| 2025-12-31 06:22 | 27.42364 | 89.41487 | 7987 ft | 184 kts | 169° |
| 2025-12-31 06:23 | 27.40209 | 89.42546 | 7346 ft | 144 kts | 152° |
| 2025-12-31 06:23 | 27.38129 | 89.43843 | 8519 ft | 186 kts | 155° |
| 2025-12-31 06:24 | 27.35546 | 89.45225 | 9752 ft | 223 kts | 153° |
| 2025-12-31 06:24 | 27.32900 | 89.47101 | 9240 ft | 227 kts | 123° |
| 2025-12-31 06:24 | 27.32550 | 89.48773 | 9236 ft | 226 kts | 82° |
| 2025-12-31 06:25 | 27.32809 | 89.52332 | 10513 ft | 237 kts | 117° |
| 2025-12-31 06:25 | 27.30190 | 89.54363 | 12026 ft | 239 kts | 173° |
| 2025-12-31 06:26 | 27.25536 | 89.52493 | 14374 ft | 246 kts | 205° |
| 2025-12-31 06:27 | 27.22726 | 89.50442 | 15767 ft | 249 kts | 242° |
| 2025-12-31 06:27 | 27.22218 | 89.46627 | 16442 ft | 250 kts | 274° |
| 2025-12-31 06:27 | 27.22316 | 89.44685 | 16444 ft | 248 kts | 274° |
| 2025-12-31 06:28 | 27.22987 | 89.40904 | 16395 ft | 249 kts | 287° |
| 2025-12-31 06:28 | 27.24054 | 89.37036 | 15140 ft | 271 kts | 287° |
| 2025-12-31 06:29 | 27.25693 | 89.33123 | 14237 ft | 277 kts | 310° |
| 2025-12-31 06:29 | 27.28702 | 89.30832 | 14105 ft | 256 kts | 341° |
| 2025-12-31 06:30 | 27.33667 | 89.30649 | 13996 ft | 223 kts | 354° |
| 2025-12-31 06:31 | 27.36288 | 89.29770 | 13841 ft | 171 kts | 330° |
| 2025-12-31 06:31 | 27.38183 | 89.28385 | 13775 ft | 159 kts | 326° |
| 2025-12-31 06:31 | 27.39107 | 89.27698 | 13774 ft | 159 kts | 326° |
| 2025-12-31 06:32 | 27.40956 | 89.26353 | 13778 ft | 159 kts | 332° |
| 2025-12-31 06:32 | 27.43081 | 89.25711 | 13698 ft | 161 kts | 357° |
| 2025-12-31 06:33 | 27.45265 | 89.26172 | 13707 ft | 162 kts | 22° |
| 2025-12-31 06:33 | 27.47070 | 89.27669 | 13356 ft | 162 kts | 49° |
| 2025-12-31 06:34 | 27.48281 | 89.31062 | 12467 ft | 160 kts | 87° |
| 2025-12-31 06:35 | 27.48184 | 89.33670 | 11402 ft | 168 kts | 120° |
| 2025-12-31 06:35 | 27.47421 | 89.34598 | 11095 ft | 161 kts | 142° |
| 2025-12-31 06:35 | 27.45331 | 89.35785 | 9963 ft | 176 kts | 154° |
| 2025-12-31 06:36 | 27.44314 | 89.38298 | 8486 ft | 191 kts | 105° |
| 2025-12-31 06:36 | 27.43411 | 89.40685 | 8078 ft | 151 kts | 122° |
| 2025-12-31 06:37 | 27.41673 | 89.41688 | 7589 ft | 149 kts | 169° |
| 2025-12-31 06:37 | 27.40182 | 89.42561 | 7335 ft | 55 kts | 151° |
| 2025-12-31 06:38 | 27.39581 | 89.42939 | 7338 ft | 26 kts | 148° |
| 2025-12-31 06:39 | 27.39421 | 89.42971 | 7335 ft | 10 kts | 253° |
| 2025-12-31 06:39 | 27.39463 | 89.42909 | 7334 ft | 11 kts | 330° |
| 2025-12-31 06:39 | 27.39594 | 89.42828 | 7334 ft | 11 kts | 331° |
| 2025-12-31 06:40 | 27.39786 | 89.42706 | 7334 ft | 18 kts | 331° |
| 2025-12-31 06:40 | 27.40009 | 89.42564 | 7333 ft | 19 kts | 330° |
| 2025-12-31 06:41 | 27.40232 | 89.42422 | 7333 ft | 18 kts | 330° |
| 2025-12-31 06:41 | 27.40451 | 89.42283 | 7334 ft | 18 kts | 330° |
| 2025-12-31 06:42 | 27.40578 | 89.42175 | 7333 ft | 8 kts | 252° |
| 2025-12-31 06:42 | 27.40556 | 89.42132 | 7332 ft | 0 kts | 239° |